ETSN

Neuburg Airport

Germany
METAR ETSN 151920Z 19004KT 9999 FEW030 M01/M03 Q1000 BLU+
Observed Flight Rules
Dec-15 @ 19:20 UTC (25 minutes ago) Visual Flight Rules
Wind Visibility Clouds
190° at 4 knots 10,000+ meters
  • Few at 3,000' AGL
Temperatures Readings
Current -1°C / 30°F
Dewpoint -3°C / 27°F
Humidity 86%
Altimeter 29.53" Hg
Pressure 1000 hPa
Elevation 387
METAR ETSN 151920Z 19004KT 9999 FEW030 M01/M03 Q1000 BLU+
Observed Flight Rules
Dec-15 @ 19:20 UTC
(25 minutes ago)
VFR
Wind Visibility
190° at 4 knots 10,000+ meters
Clouds
  • Few at 3,000' AGL
Temperature Dewpoint
-1°C / 30°F -3°C / 27°F
Humidity Altimeter Pressure
86% 29.53" Hg 1000 hPa